Time;durP1;ratioP1;P1;durP2;ratioP2;P2;SDS_P1;SDS_P2;PMS_P1;PMS_P2;Temp;Humidity;BMP_temperature;BMP_pressure;BME280_temperature;BME280_humidity;BME280_pressure;Samples;Min_cycle;Max_cycle;Signal;HPM_P1;HPM_P2
2022/04/23 00:01:13;;;;;;;;;;;;;;;13.44;58.48;100169.16;4424269;32;19998;-69
2022/04/23 00:03:39;;;;;;;;;;;;;;;13.40;58.74;100173.41;4424792;32;19957;-69
2022/04/23 00:06:04;;;;;;;;;;;;;;;13.38;58.68;100181.59;4423512;32;19997;-69
2022/04/23 00:08:30;;;;;;;;;;;;;;;13.37;58.77;100174.34;4423369;32;19992;-69
2022/04/23 00:10:55;;;;;;;;;;;;;;;13.52;58.40;100172.47;4425386;32;20373;-69
2022/04/23 00:13:21;;;;;;;;;;;;;;;13.05;59.75;100174.97;4424230;32;19999;-69
2022/04/23 00:15:46;;;;;;;;;;;;;;;13.09;59.73;100170.75;4423271;32;20008;-69
2022/04/23 00:18:12;;;;;;;;;;;;;;;12.93;59.98;100167.38;4424263;32;20004;-69
2022/04/23 00:20:38;;;;;;;;;;;;;;;13.14;59.63;100172.16;4425019;32;19953;-69
2022/04/23 00:23:05;;;;;;;;;;;;;;;12.90;60.34;100157.03;4422563;32;20792;-69
2022/04/23 00:25:31;;;;;;;;;;;;;;;12.91;60.39;100167.84;4424168;32;19993;-69
2022/04/23 00:27:58;;;;;;;;;;;;;;;13.03;59.91;100158.50;4411881;32;19979;-69
2022/04/23 00:30:24;;;;;;;;;;;;;;;13.20;59.95;100147.69;4423642;32;19997;-69
2022/04/23 00:32:50;;;;;;;;;;;;;;;13.11;60.13;100156.94;4423616;32;19964;-69
2022/04/23 00:35:16;;;;;;;;;;;;;;;13.17;59.99;100148.63;4425185;32;19961;-69
2022/04/23 00:37:42;;;;;;;;;;;;;;;12.95;60.59;100140.25;4425372;32;19972;-69
2022/04/23 00:40:16;;;;;;;;;;;;;;;12.99;60.60;100145.75;4424080;32;20010;-69
2022/04/23 00:42:46;;;;;;;;;;;;;;;13.01;60.61;100141.22;4423295;32;19985;-69
2022/04/23 00:45:11;;;;;;;;;;;;;;;13.10;60.48;100144.06;4424811;32;20001;-69
2022/04/23 00:47:38;;;;;;;;;;;;;;;12.93;61.47;100134.28;4424920;32;19979;-69
2022/04/23 00:50:04;;;;;;;;;;;;;;;12.97;60.92;100136.94;4425365;32;20056;-69
2022/04/23 00:52:31;;;;;;;;;;;;;;;13.00;61.27;100130.41;4422517;32;20019;-69
2022/04/23 00:54:56;;;;;;;;;;;;;;;13.03;60.94;100138.72;4423987;32;19993;-70
2022/04/23 00:57:22;;;;;;;;;;;;;;;13.47;60.13;100127.88;4424415;32;20001;-69
2022/04/23 00:59:49;;;;;;;;;;;;;;;13.22;60.33;100128.19;4424399;32;19973;-69
2022/04/23 01:02:15;;;;;;;;;;;;;;;13.20;60.51;100127.91;4422875;32;20420;-69
2022/04/23 01:04:40;;;;;;;;;;;;;;;13.04;60.67;100128.97;4424477;32;20471;-69
2022/04/23 01:07:07;;;;;;;;;;;;;;;13.09;60.68;100122.72;4423467;32;20406;-69
2022/04/23 01:09:33;;;;;;;;;;;;;;;12.78;61.59;100104.31;4424976;32;20028;-69
2022/04/23 01:11:59;;;;;;;;;;;;;;;13.09;60.32;100116.28;4423239;32;19962;-69
2022/04/23 01:14:25;;;;;;;;;;;;;;;13.15;60.69;100106.72;4423291;32;20325;-69
2022/04/23 01:16:51;;;;;;;;;;;;;;;13.03;61.09;100112.50;4426020;32;19949;-69
2022/04/23 01:19:17;;;;;;;;;;;;;;;12.85;61.46;100107.59;4426248;32;19961;-69
2022/04/23 01:21:43;;;;;;;;;;;;;;;12.98;61.18;100113.88;4423753;32;20012;-69
2022/04/23 01:24:09;;;;;;;;;;;;;;;13.02;60.80;100113.78;4423666;32;19993;-69
2022/04/23 01:26:34;;;;;;;;;;;;;;;13.00;60.99;100102.94;4423882;32;19958;-69
2022/04/23 01:29:00;;;;;;;;;;;;;;;13.08;60.64;100112.69;4423824;32;19996;-69
2022/04/23 01:31:26;;;;;;;;;;;;;;;13.10;61.03;100101.69;4423131;32;19955;-69
2022/04/23 01:33:53;;;;;;;;;;;;;;;13.16;60.56;100094.16;4423222;32;20002;-69
2022/04/23 01:36:18;;;;;;;;;;;;;;;13.31;60.52;100108.41;4425776;32;19979;-69
2022/04/23 01:38:44;;;;;;;;;;;;;;;13.28;60.03;100092.41;4424488;32;19957;-69
2022/04/23 01:41:10;;;;;;;;;;;;;;;13.58;59.29;100088.59;4422493;32;19965;-69
2022/04/23 01:43:36;;;;;;;;;;;;;;;13.67;58.96;100088.56;4423878;32;19990;-69
2022/04/23 01:46:02;;;;;;;;;;;;;;;13.62;59.05;100090.00;4424271;32;20012;-69
2022/04/23 01:48:27;;;;;;;;;;;;;;;13.73;58.57;100083.84;4425989;32;20343;-70
2022/04/23 01:50:55;;;;;;;;;;;;;;;13.47;59.60;100093.97;4423915;32;21498;-70
2022/04/23 01:53:22;;;;;;;;;;;;;;;13.43;59.84;100093.31;4424174;32;20366;-70
2022/04/23 01:55:52;;;;;;;;;;;;;;;13.32;60.12;100078.91;4428485;32;19953;-70
2022/04/23 01:58:18;;;;;;;;;;;;;;;13.10;60.46;100083.97;4427599;32;19965;-70
2022/04/23 02:00:44;;;;;;;;;;;;;;;13.19;60.55;100084.72;4425874;32;19949;-70
2022/04/23 02:03:09;;;;;;;;;;;;;;;13.29;60.16;100077.03;4424883;32;19954;-69
2022/04/23 02:05:35;;;;;;;;;;;;;;;13.35;60.46;100075.91;4426355;32;19992;-69
2022/04/23 02:08:00;;;;;;;;;;;;;;;13.07;61.12;100074.37;4428248;32;20340;-69
2022/04/23 02:10:26;;;;;;;;;;;;;;;13.04;61.52;100074.56;4427547;32;19993;-69
2022/04/23 02:12:52;;;;;;;;;;;;;;;13.26;60.45;100078.75;4424670;32;20007;-69
2022/04/23 02:15:18;;;;;;;;;;;;;;;13.22;60.63;100083.78;4426107;32;19993;-69
2022/04/23 02:17:45;;;;;;;;;;;;;;;13.05;60.97;100062.78;4424684;32;20042;-69
2022/04/23 02:20:11;;;;;;;;;;;;;;;12.99;61.25;100070.31;4427697;32;20367;-69
2022/04/23 02:22:37;;;;;;;;;;;;;;;13.05;61.39;100064.81;4427118;32;19968;-69
2022/04/23 02:25:05;;;;;;;;;;;;;;;13.01;61.21;100062.12;4424966;32;20477;-69
2022/04/23 02:27:47;;;;;;;;;;;;;;;12.93;61.60;100057.25;4426051;32;20016;-69
2022/04/23 02:30:13;;;;;;;;;;;;;;;12.90;61.12;100050.50;4424682;32;19993;-69
2022/04/23 02:32:40;;;;;;;;;;;;;;;13.37;60.32;100052.81;4425650;32;19962;-69
2022/04/23 02:35:06;;;;;;;;;;;;;;;12.95;61.23;100057.56;4427939;32;19953;-69
2022/04/23 02:37:34;;;;;;;;;;;;;;;13.00;61.24;100046.47;4413989;32;19998;-69
2022/04/23 02:40:02;;;;;;;;;;;;;;;13.04;61.11;100049.12;4425766;32;19975;-69
2022/04/23 02:42:28;;;;;;;;;;;;;;;12.92;61.44;100056.47;4425625;32;19953;-69
2022/04/23 02:44:54;;;;;;;;;;;;;;;13.02;60.99;100057.28;4427218;32;20034;-69
2022/04/23 02:47:20;;;;;;;;;;;;;;;13.07;61.32;100054.59;4409669;32;19961;-69
2022/04/23 02:49:46;;;;;;;;;;;;;;;13.38;60.12;100043.13;4418704;32;20020;-69
2022/04/23 02:52:11;;;;;;;;;;;;;;;12.81;61.72;100035.59;4415708;32;19978;-69
2022/04/23 02:54:38;;;;;;;;;;;;;;;13.16;61.16;100043.28;4415397;32;19954;-69
2022/04/23 02:57:04;;;;;;;;;;;;;;;13.28;60.52;100045.16;4421528;32;20031;-69
2022/04/23 02:59:29;;;;;;;;;;;;;;;13.29;60.34;100041.06;4418213;32;19958;-69
2022/04/23 03:01:56;;;;;;;;;;;;;;;13.29;60.70;100031.81;4415459;32;20024;-69
2022/04/23 03:04:21;;;;;;;;;;;;;;;13.31;60.53;100035.75;4415887;32;19961;-69
2022/04/23 03:06:48;;;;;;;;;;;;;;;13.93;58.18;100031.13;4415083;32;20406;-69
2022/04/23 03:09:13;;;;;;;;;;;;;;;13.36;60.28;100029.47;4418827;32;19960;-69
2022/04/23 03:11:39;;;;;;;;;;;;;;;13.30;60.45;100024.91;4414097;32;19945;-69
2022/04/23 03:14:05;;;;;;;;;;;;;;;13.38;60.54;100024.09;4416523;32;19962;-69
2022/04/23 03:16:31;;;;;;;;;;;;;;;13.36;60.49;100032.28;4418153;32;20005;-69
2022/04/23 03:18:57;;;;;;;;;;;;;;;13.35;60.70;100033.53;4415042;32;19983;-69
2022/04/23 03:21:23;;;;;;;;;;;;;;;13.54;60.18;100029.41;4417968;32;20000;-69
2022/04/23 03:23:49;;;;;;;;;;;;;;;13.68;59.59;100037.19;4414642;32;19953;-69
2022/04/23 03:26:14;;;;;;;;;;;;;;;13.92;58.78;100035.22;4416277;32;20382;-69
2022/04/23 03:28:40;;;;;;;;;;;;;;;13.14;60.72;100026.06;4417063;32;19946;-69
2022/04/23 03:31:05;;;;;;;;;;;;;;;13.70;59.72;100026.22;4418401;32;19954;-69
2022/04/23 03:33:32;;;;;;;;;;;;;;;13.73;59.53;100024.47;4413260;32;20012;-69
2022/04/23 03:35:58;;;;;;;;;;;;;;;14.00;58.69;100025.12;4421478;32;21362;-69
2022/04/23 03:38:23;;;;;;;;;;;;;;;13.76;59.49;100015.03;4417285;32;19949;-69
2022/04/23 03:40:53;;;;;;;;;;;;;;;13.64;59.90;100022.47;4415875;32;20009;-69
2022/04/23 03:43:20;;;;;;;;;;;;;;;13.60;60.17;100012.59;4416814;32;20029;-69
2022/04/23 03:45:47;;;;;;;;;;;;;;;14.14;58.04;100020.03;4417945;32;19989;-69
2022/04/23 03:48:14;;;;;;;;;;;;;;;13.80;59.60;100021.28;4426404;32;19995;-69
2022/04/23 03:50:39;;;;;;;;;;;;;;;13.60;60.31;100021.06;4426001;32;20021;-69
2022/04/23 03:53:05;;;;;;;;;;;;;;;13.60;60.54;100013.34;4423832;32;20370;-69
2022/04/23 03:55:31;;;;;;;;;;;;;;;13.56;60.63;100020.47;4425902;32;19988;-69
2022/04/23 03:57:56;;;;;;;;;;;;;;;13.57;60.86;100008.66;4427685;32;19997;-69
2022/04/23 04:00:22;;;;;;;;;;;;;;;13.41;60.82;100008.25;4427066;32;20401;-69
2022/04/23 04:02:49;;;;;;;;;;;;;;;13.36;61.02;100001.19;4423503;32;19993;-69
2022/04/23 04:05:15;;;;;;;;;;;;;;;13.53;61.05;100013.69;4425799;32;20879;-69
2022/04/23 04:07:42;;;;;;;;;;;;;;;13.55;60.86;100008.34;4425607;32;19960;-69
2022/04/23 04:10:11;;;;;;;;;;;;;;;13.70;60.42;100016.94;4425096;32;20372;-69
2022/04/23 04:12:37;;;;;;;;;;;;;;;13.94;59.42;100012.12;4424576;32;19972;-69
2022/04/23 04:15:04;;;;;;;;;;;;;;;13.81;59.89;100008.72;4425094;32;20002;-69
2022/04/23 04:17:30;;;;;;;;;;;;;;;13.78;59.68;100001.19;4425061;32;20022;-69
2022/04/23 04:19:55;;;;;;;;;;;;;;;13.89;59.19;100009.94;4427502;32;19953;-69
2022/04/23 04:22:21;;;;;;;;;;;;;;;14.00;58.94;100002.47;4424859;32;19965;-69
2022/04/23 04:24:48;;;;;;;;;;;;;;;14.15;58.07;100011.06;4423304;32;19996;-69
2022/04/23 04:27:15;;;;;;;;;;;;;;;14.01;59.07;100004.06;4425705;32;19997;-69
2022/04/23 04:29:40;;;;;;;;;;;;;;;13.78;59.62;100010.44;4427751;32;19954;-69
2022/04/23 04:32:07;;;;;;;;;;;;;;;13.60;59.81;100007.69;4426971;32;20017;-69
2022/04/23 04:34:33;;;;;;;;;;;;;;;13.69;59.25;100010.50;4425781;32;20027;-69
2022/04/23 04:37:07;;;;;;;;;;;;;;;13.74;59.48;100018.34;4425488;32;20024;-69
2022/04/23 04:39:33;;;;;;;;;;;;;;;13.74;59.88;100011.88;4426289;32;20028;-69
2022/04/23 04:41:58;;;;;;;;;;;;;;;13.48;60.49;100017.19;4424211;32;19964;-69
2022/04/23 04:44:24;;;;;;;;;;;;;;;13.71;59.66;100012.84;4424454;32;19964;-69
2022/04/23 04:46:49;;;;;;;;;;;;;;;13.16;61.40;100000.91;4426404;32;19950;-69
2022/04/23 04:49:15;;;;;;;;;;;;;;;13.33;61.03;100004.97;4427296;32;20039;-69
2022/04/23 04:51:41;;;;;;;;;;;;;;;13.28;60.88;100013.28;4424469;32;19993;-69
2022/04/23 04:54:06;;;;;;;;;;;;;;;13.29;60.96;100015.62;4426310;32;20045;-69
2022/04/23 04:56:33;;;;;;;;;;;;;;;13.43;60.34;100009.34;4426735;32;20430;-69
2022/04/23 04:58:59;;;;;;;;;;;;;;;13.47;60.74;100012.00;4427953;32;20021;-69
2022/04/23 05:01:24;;;;;;;;;;;;;;;13.44;60.56;100018.59;4426393;32;19957;-69
2022/04/23 05:03:51;;;;;;;;;;;;;;;13.44;60.60;100016.53;4425707;32;19981;-69
2022/04/23 05:06:17;;;;;;;;;;;;;;;13.38;60.52;100012.78;4425486;32;19954;-69
2022/04/23 05:08:43;;;;;;;;;;;;;;;13.53;60.04;100012.94;4427169;32;20470;-69
2022/04/23 05:11:10;;;;;;;;;;;;;;;13.63;59.75;100014.47;4427035;32;19960;-69
2022/04/23 05:13:37;;;;;;;;;;;;;;;13.40;60.37;100013.13;4424799;32;19964;-69
2022/04/23 05:16:04;;;;;;;;;;;;;;;13.44;60.26;100005.25;4425866;32;20417;-69
2022/04/23 05:18:30;;;;;;;;;;;;;;;13.24;61.01;100005.00;4428660;32;19945;-69
2022/04/23 05:20:56;;;;;;;;;;;;;;;13.50;60.37;99999.75;4426822;32;20048;-69
2022/04/23 05:23:22;;;;;;;;;;;;;;;13.54;60.23;100003.97;4426127;32;19961;-69
2022/04/23 05:25:47;;;;;;;;;;;;;;;13.49;60.55;100012.28;4426961;32;20001;-69
2022/04/23 05:28:13;;;;;;;;;;;;;;;13.95;58.97;100002.38;4427358;32;20467;-69
2022/04/23 05:30:39;;;;;;;;;;;;;;;14.09;58.55;100008.09;4430020;32;19975;-69
2022/04/23 05:33:05;;;;;;;;;;;;;;;14.17;57.96;100011.34;4426539;32;19960;-69
2022/04/23 05:35:31;;;;;;;;;;;;;;;13.95;58.58;100008.81;4429635;32;19957;-69
2022/04/23 05:37:56;;;;;;;;;;;;;;;13.96;58.48;100018.84;4430619;32;20266;-69
2022/04/23 05:40:22;;;;;;;;;;;;;;;13.84;59.31;100013.44;4428809;32;20344;-69
2022/04/23 05:42:48;;;;;;;;;;;;;;;14.09;57.75;100018.66;4429489;32;19957;-69
2022/04/23 05:45:13;;;;;;;;;;;;;;;14.21;57.77;100022.50;4429333;32;19957;-69
2022/04/23 05:47:41;;;;;;;;;;;;;;;14.04;57.91;100014.44;4427405;32;19969;-68
2022/04/23 05:50:07;;;;;;;;;;;;;;;14.02;58.34;100011.28;4430434;32;20459;-68
2022/04/23 05:52:32;;;;;;;;;;;;;;;13.89;59.04;100013.56;4426457;32;19988;-68
2022/04/23 05:54:58;;;;;;;;;;;;;;;13.95;58.39;100020.13;4428877;32;20520;-68
2022/04/23 05:57:24;;;;;;;;;;;;;;;14.07;58.20;100021.16;4430451;32;19990;-68
2022/04/23 05:59:50;;;;;;;;;;;;;;;14.05;58.29;100015.19;4427750;32;20662;-68
2022/04/23 06:02:16;;;;;;;;;;;;;;;14.16;58.10;100021.13;4428575;32;20013;-68
2022/04/23 06:04:42;;;;;;;;;;;;;;;13.90;58.55;100020.00;4428344;32;19966;-68
2022/04/23 06:07:08;;;;;;;;;;;;;;;13.99;58.50;100034.88;4427676;32;19961;-68
2022/04/23 06:09:33;;;;;;;;;;;;;;;14.05;58.46;100018.81;4431481;32;20388;-68
2022/04/23 06:11:59;;;;;;;;;;;;;;;14.11;58.18;100027.41;4428420;32;20669;-68
2022/04/23 06:14:24;;;;;;;;;;;;;;;13.95;58.58;100020.13;4427316;32;20395;-68
2022/04/23 06:16:50;;;;;;;;;;;;;;;14.05;58.73;100018.81;4427986;32;19972;-68
2022/04/23 06:19:16;;;;;;;;;;;;;;;14.13;58.52;100019.25;4430193;32;19986;-69
2022/04/23 06:21:41;;;;;;;;;;;;;;;14.14;58.54;100025.69;4426457;32;20000;-68
2022/04/23 06:24:07;;;;;;;;;;;;;;;14.09;58.65;100021.47;4428188;32;20036;-69
2022/04/23 06:26:33;;;;;;;;;;;;;;;14.17;58.32;100019.84;4427444;32;21217;-68
2022/04/23 06:28:58;;;;;;;;;;;;;;;14.03;58.68;100018.50;4429111;32;19949;-68
2022/04/23 06:31:23;;;;;;;;;;;;;;;13.99;58.86;100017.91;4428949;32;20003;-68
2022/04/23 06:33:49;;;;;;;;;;;;;;;14.05;58.92;100018.81;4427148;32;19989;-68
2022/04/23 06:36:14;;;;;;;;;;;;;;;14.14;58.83;100028.53;4428614;32;19985;-69
2022/04/23 06:38:40;;;;;;;;;;;;;;;14.04;59.02;100030.59;4415394;32;20288;-68
2022/04/23 06:41:06;;;;;;;;;;;;;;;14.30;58.40;100025.31;4428610;32;19950;-68
2022/04/23 06:43:31;;;;;;;;;;;;;;;13.98;59.31;100027.66;4429348;32;20406;-68
2022/04/23 06:45:59;;;;;;;;;;;;;;;14.15;58.93;100032.91;4428882;32;19945;-69
2022/04/23 06:48:25;;;;;;;;;;;;;;;14.55;57.92;100033.31;4427890;32;19961;-68
2022/04/23 06:50:50;;;;;;;;;;;;;;;14.65;57.57;100034.81;4429062;32;19949;-68
2022/04/23 06:53:16;;;;;;;;;;;;;;;14.46;57.65;100037.00;4427059;32;19953;-69
2022/04/23 06:55:41;;;;;;;;;;;;;;;14.22;58.98;100036.16;4428947;32;20506;-68
2022/04/23 06:58:07;;;;;;;;;;;;;;;14.28;58.87;100039.16;4427055;32;19989;-68
2022/04/23 07:00:32;;;;;;;;;;;;;;;14.58;58.02;100033.16;4430096;32;19981;-68
2022/04/23 07:02:57;;;;;;;;;;;;;;;14.59;57.90;100031.06;4428632;32;20001;-68
2022/04/23 07:05:23;;;;;;;;;;;;;;;14.65;57.64;100037.63;4428392;32;19969;-68
2022/04/23 07:07:57;;;;;;;;;;;;;;;14.64;57.61;100033.25;4428172;32;20047;-68
2022/04/23 07:10:23;;;;;;;;;;;;;;;14.62;57.81;100041.44;4428522;32;19981;-68
2022/04/23 07:12:49;;;;;;;;;;;;;;;15.07;56.61;100036.16;4427982;32;20012;-68
2022/04/23 07:15:15;;;;;;;;;;;;;;;14.70;57.37;100032.09;4428715;32;20538;-68
2022/04/23 07:17:40;;;;;;;;;;;;;;;14.58;57.68;100041.63;4427212;32;19989;-68
2022/04/23 07:20:08;;;;;;;;;;;;;;;14.65;57.82;100029.16;4427177;32;19986;-68
2022/04/23 07:22:34;;;;;;;;;;;;;;;14.29;58.84;100035.84;4425187;32;19981;-69
2022/04/23 07:24:59;;;;;;;;;;;;;;;14.58;58.33;100040.84;4427387;32;19969;-68
2022/04/23 07:27:27;;;;;;;;;;;;;;;14.74;58.05;100037.56;4428790;32;20666;-68
2022/04/23 07:29:53;;;;;;;;;;;;;;;14.70;57.57;100043.41;4430446;32;19981;-68
2022/04/23 07:32:21;;;;;;;;;;;;;;;14.83;57.73;100040.34;4425633;32;20496;-68
2022/04/23 07:37:33;;;;;;;;;;;;;;;14.73;57.81;100048.09;4427967;32;20139;-68
2022/04/23 07:40:02;;;;;;;;;;;;;;;14.60;58.44;100036.25;4428816;32;20025;-68
2022/04/23 07:42:28;;;;;;;;;;;;;;;14.82;58.05;100048.03;4426673;32;19976;-69
2022/04/23 07:44:54;;;;;;;;;;;;;;;14.73;58.24;100047.34;4428312;32;19961;-68
2022/04/23 07:47:19;;;;;;;;;;;;;;;14.54;58.56;100049.50;4427687;32;19986;-68
2022/04/23 07:49:46;;;;;;;;;;;;;;;14.71;58.10;100039.34;4425071;32;19965;-69
2022/04/23 07:52:11;;;;;;;;;;;;;;;14.73;58.48;100038.84;4426614;32;19957;-68
2022/04/23 07:54:38;;;;;;;;;;;;;;;14.79;58.24;100043.34;4425776;32;20013;-69
2022/04/23 07:57:06;;;;;;;;;;;;;;;15.05;57.60;100035.91;4427177;32;19974;-68
2022/04/23 07:59:31;;;;;;;;;;;;;;;14.93;57.90;100033.31;4427286;32;19949;-69
2022/04/23 08:01:57;;;;;;;;;;;;;;;14.68;58.37;100040.31;4425194;32;20370;-68
2022/04/23 08:04:23;;;;;;;;;;;;;;;14.79;58.32;100029.19;4425662;32;20004;-68
2022/04/23 08:06:48;;;;;;;;;;;;;;;14.70;58.93;100032.09;4428349;32;19972;-68
2022/04/23 08:09:14;;;;;;;;;;;;;;;14.95;58.49;100023.09;4426752;32;19969;-69
2022/04/23 08:11:40;;;;;;;;;;;;;;;15.01;58.09;100028.84;4427422;32;19997;-69
2022/04/23 08:14:06;;;;;;;;;;;;;;;14.78;59.02;100026.84;4426524;32;19996;-68
2022/04/23 08:16:31;;;;;;;;;;;;;;;14.84;58.76;100020.03;4428397;32;20212;-68
2022/04/23 08:18:57;;;;;;;;;;;;;;;14.82;58.68;100025.38;4426733;32;20084;-68
2022/04/23 08:21:22;;;;;;;;;;;;;;;15.07;58.23;100021.25;4427536;32;19984;-68
2022/04/23 08:23:49;;;;;;;;;;;;;;;15.10;57.89;100032.38;4426649;32;19966;-69
2022/04/23 08:26:14;;;;;;;;;;;;;;;15.14;57.72;100018.03;4425821;32;20030;-68
2022/04/23 08:31:25;;;;;;;;;;;;;;;14.95;58.62;100014.59;4425165;32;20034;-68
2022/04/23 08:33:57;;;;;;;;;;;;;;;15.32;57.49;100012.97;4424509;32;20002;-68
2022/04/23 08:36:23;;;;;;;;;;;;;;;15.39;56.97;100012.59;4426700;32;20279;-68
2022/04/23 08:38:49;;;;;;;;;;;;;;;15.78;56.26;100018.91;4412532;32;19949;-68
2022/04/23 08:41:14;;;;;;;;;;;;;;;15.70;56.10;100018.53;4424514;32;19989;-69
2022/04/23 08:43:41;;;;;;;;;;;;;;;15.80;56.06;100030.53;4424878;32;19982;-69
2022/04/23 08:46:07;;;;;;;;;;;;;;;15.81;55.54;100032.88;4411524;32;19965;-69
2022/04/23 08:48:37;;;;;;;;;;;;;;;15.86;56.03;100025.72;4425956;32;20042;-69
2022/04/23 08:51:04;;;;;;;;;;;;;;;16.09;55.49;100036.16;4424561;32;20044;-69
2022/04/23 08:53:32;;;;;;;;;;;;;;;16.14;54.98;100041.13;4424871;32;19969;-68
2022/04/23 08:55:57;;;;;;;;;;;;;;;16.13;54.95;100030.31;4426436;32;20392;-68
2022/04/23 08:58:24;;;;;;;;;;;;;;;16.20;54.79;100036.31;4428280;32;19981;-69
2022/04/23 09:00:50;;;;;;;;;;;;;;;16.49;54.09;100036.25;4426051;32;20033;-68
2022/04/23 09:03:16;;;;;;;;;;;;;;;16.44;54.11;100025.59;4424849;32;20072;-69
2022/04/23 09:05:43;;;;;;;;;;;;;;;16.41;54.86;100023.72;4428911;32;20011;-69
2022/04/23 09:08:09;;;;;;;;;;;;;;;16.75;53.49;100039.94;4415338;32;19973;-69
2022/04/23 09:13:26;;;;;;;;;;;;;;;17.78;51.02;100033.06;3957105;32;15750575;-69
2022/04/23 09:24:45;;;;;;;;;;;;;;;17.91;50.43;100040.41;4432782;32;19976;-68
2022/04/23 09:27:11;;;;;;;;;;;;;;;18.02;49.95;100040.47;4429207;32;19989;-69
2022/04/23 09:29:36;;;;;;;;;;;;;;;17.85;50.48;100049.66;4429813;32;20010;-69
2022/04/23 09:34:44;;;;;;;;;;;;;;;18.41;49.61;100058.66;3953111;32;15734640;-69
2022/04/23 09:37:10;;;;;;;;;;;;;;;18.41;49.61;100058.66;4428783;32;19946;-69
2022/04/23 09:39:38;;;;;;;;;;;;;;;18.23;49.60;100053.31;4431223;32;20149;-69
2022/04/23 09:42:19;;;;;;;;;;;;;;;18.36;49.24;100053.66;4427389;32;20665;-69
2022/04/23 09:44:45;;;;;;;;;;;;;;;18.45;48.70;100054.28;4431515;32;19972;-69
2022/04/23 09:47:28;;;;;;;;;;;;;;;18.56;48.47;100051.47;4425456;32;19953;-69
2022/04/23 09:49:54;;;;;;;;;;;;;;;18.76;48.41;100050.53;4429870;32;19958;-69
2022/04/23 09:52:26;;;;;;;;;;;;;;;18.73;48.28;100051.56;4426249;32;19997;-69
2022/04/23 09:54:53;;;;;;;;;;;;;;;18.95;47.50;100054.50;4426626;32;20011;-69
2022/04/23 09:57:19;;;;;;;;;;;;;;;18.84;47.42;100055.22;4433384;32;19950;-69
2022/04/23 09:59:45;;;;;;;;;;;;;;;18.81;47.65;100064.03;4428848;32;19950;-69
2022/04/23 10:02:13;;;;;;;;;;;;;;;18.64;48.29;100060.31;4426494;32;19961;-69
2022/04/23 10:04:39;;;;;;;;;;;;;;;18.85;47.98;100064.56;4426404;32;19973;-70
2022/04/23 10:07:07;;;;;;;;;;;;;;;18.80;48.06;100053.91;4428075;32;19973;-70
2022/04/23 10:09:37;;;;;;;;;;;;;;;18.90;47.88;100061.72;4428128;32;19989;-70
2022/04/23 10:12:05;;;;;;;;;;;;;;;18.93;47.66;100062.81;4425976;32;20015;-70
2022/04/23 10:14:35;;;;;;;;;;;;;;;18.94;47.63;100062.28;4424708;32;19991;-69
2022/04/23 10:17:04;;;;;;;;;;;;;;;18.97;47.50;100057.63;4428218;32;20825;-68
2022/04/23 10:19:30;;;;;;;;;;;;;;;18.81;47.99;100056.25;4429444;32;19992;-68
2022/04/23 10:22:04;;;;;;;;;;;;;;;18.63;48.16;100058.78;4424873;32;20013;-68
2022/04/23 10:27:10;;;;;;;;;;;;;;;19.48;46.49;100051.56;3953554;32;15724415;-69
2022/04/23 10:29:36;;;;;;;;;;;;;;;19.48;46.49;100051.56;4432019;32;20326;-69
2022/04/23 10:34:44;;;;;;;;;;;;;;;18.70;47.72;100046.87;3952887;32;15724587;-69
2022/04/23 10:42:27;;;;;;;;;;;;;;;19.31;47.22;100051.56;3952867;32;15723626;-69
2022/04/23 10:44:56;;;;;;;;;;;;;;;19.31;47.22;100051.56;4431648;32;20010;-69
2022/04/23 10:52:50;;;;;;;;;;;;;;;19.05;47.82;100061.56;3950852;32;15726484;-69
2022/04/23 10:55:15;;;;;;;;;;;;;;;19.05;47.82;100061.56;4435437;32;20009;-69
2022/04/23 10:58:01;;;;;;;;;;;;;;;18.34;49.22;100051.31;4438563;32;19984;-69
2022/04/23 11:00:30;;;;;;;;;;;;;;;18.51;49.10;100052.25;4438213;32;20584;-69
2022/04/23 11:02:57;;;;;;;;;;;;;;;18.55;49.08;100049.91;4434733;32;19964;-69
2022/04/23 11:13:48;;;;;;;;;;;;;;;18.94;48.42;100062.28;4434677;32;19983;-69
2022/04/23 11:18:50;;;;;;;;;;;;;;;19.01;48.07;100056.09;3953378;32;15723340;-69
2022/04/23 11:21:21;;;;;;;;;;;;;;;19.01;48.07;100056.09;4430411;32;20368;-69
2022/04/23 11:23:47;;;;;;;;;;;;;;;18.69;48.39;100054.66;4429393;32;19945;-69
2022/04/23 11:26:13;;;;;;;;;;;;;;;19.00;47.92;100062.31;4428438;32;19986;-69
2022/04/23 11:28:40;;;;;;;;;;;;;;;19.19;47.29;100061.34;4433175;32;20005;-69
2022/04/23 11:31:10;;;;;;;;;;;;;;;19.06;47.29;100066.75;4415305;32;20103;-69
2022/04/23 11:33:36;;;;;;;;;;;;;;;18.94;47.65;100070.06;4431423;32;19968;-69
2022/04/23 11:36:02;;;;;;;;;;;;;;;19.10;47.66;100066.47;4429804;32;20001;-69
2022/04/23 11:38:28;;;;;;;;;;;;;;;19.15;46.94;100068.59;4432607;32;19958;-69
2022/04/23 11:40:54;;;;;;;;;;;;;;;19.18;47.03;100068.31;4428642;32;19966;-69
2022/04/23 11:43:37;;;;;;;;;;;;;;;19.13;47.36;100074.00;4430219;32;20030;-69
2022/04/23 11:46:05;;;;;;;;;;;;;;;19.02;47.61;100077.59;4437508;32;20003;-69
2022/04/23 11:48:47;;;;;;;;;;;;;;;19.19;47.15;100066.25;4430892;32;19985;-69
2022/04/23 11:51:19;;;;;;;;;;;;;;;19.53;46.31;100076.50;4427681;32;19996;-69
2022/04/23 11:53:52;;;;;;;;;;;;;;;19.73;45.67;100079.12;4429745;32;19960;-69
2022/04/23 11:56:22;;;;;;;;;;;;;;;19.95;45.16;100076.28;4428443;32;19964;-69
2022/04/23 11:58:47;;;;;;;;;;;;;;;20.11;44.70;100077.56;4433276;32;20031;-69
2022/04/23 12:01:13;;;;;;;;;;;;;;;20.55;43.74;100071.81;4430420;32;19996;-69
2022/04/23 12:03:47;;;;;;;;;;;;;;;20.63;43.48;100073.63;4427581;32;20420;-68
2022/04/23 12:06:12;;;;;;;;;;;;;;;21.14;42.38;100077.87;4432915;32;19945;-68
2022/04/23 12:08:37;;;;;;;;;;;;;;;21.13;42.16;100074.25;4431877;32;19991;-68
2022/04/23 12:11:18;;;;;;;;;;;;;;;21.32;41.47;100075.19;4427845;32;20394;-69
2022/04/23 12:13:43;;;;;;;;;;;;;;;21.66;40.59;100076.53;4424056;32;19996;-69
2022/04/23 12:16:09;;;;;;;;;;;;;;;21.53;40.67;100067.78;4430475;32;20393;-68
2022/04/23 12:18:36;;;;;;;;;;;;;;;22.09;39.34;100056.69;4429455;32;19993;-69
2022/04/23 12:21:06;;;;;;;;;;;;;;;22.62;38.35;100061.69;4428576;32;20003;-69
2022/04/23 12:23:40;;;;;;;;;;;;;;;23.10;36.33;100055.09;4428729;32;20015;-69
2022/04/23 12:26:07;;;;;;;;;;;;;;;23.97;35.75;100060.13;4429796;32;20365;-69
2022/04/23 12:42:44;;;;;;;;;;;;;;;26.63;27.13;100062.47;4419514;32;20375;-69
2022/04/23 12:45:18;;;;;;;;;;;;;;;27.84;25.05;100066.72;4420644;32;19941;-68
2022/04/23 12:47:43;;;;;;;;;;;;;;;27.28;25.20;100052.47;4420624;32;20362;-68
2022/04/23 12:50:11;;;;;;;;;;;;;;;28.03;24.38;100039.00;4419589;32;19982;-69
2022/04/23 12:57:49;;;;;;;;;;;;;;;27.91;24.13;100032.06;3953691;32;15722590;-69
2022/04/23 13:00:20;;;;;;;;;;;;;;;27.91;24.13;100032.06;4435179;32;19968;-69
2022/04/23 13:02:48;;;;;;;;;;;;;;;27.39;23.99;100017.47;4431118;32;19965;-70
2022/04/23 13:05:14;;;;;;;;;;;;;;;27.39;23.24;100018.22;4430642;32;19981;-69
2022/04/23 13:10:25;;;;;;;;;;;;;;;26.23;23.79;100033.06;4437277;32;20368;-70
2022/04/23 13:12:51;;;;;;;;;;;;;;;26.79;23.47;100015.78;4432938;32;20016;-70
2022/04/23 13:15:17;;;;;;;;;;;;;;;26.70;23.54;100027.09;4430469;32;19965;-70
2022/04/23 13:17:43;;;;;;;;;;;;;;;26.83;23.31;100021.97;4436910;32;19984;-70
2022/04/23 13:20:09;;;;;;;;;;;;;;;27.31;22.58;100019.53;4429016;32;20387;-70
2022/04/23 13:22:35;;;;;;;;;;;;;;;26.83;22.79;100032.75;4437752;32;20353;-70
2022/04/23 13:25:02;;;;;;;;;;;;;;;25.55;24.52;100020.06;4430403;32;19996;-70
2022/04/23 13:27:29;;;;;;;;;;;;;;;24.46;26.36;100024.72;4434902;32;20372;-70
2022/04/23 13:29:55;;;;;;;;;;;;;;;24.09;27.10;100027.00;4432239;32;20429;-70
2022/04/23 13:32:20;;;;;;;;;;;;;;;25.27;25.78;100014.94;4433058;32;19957;-70
2022/04/23 13:34:46;;;;;;;;;;;;;;;25.87;25.39;100022.72;4431590;32;20000;-70
2022/04/23 13:37:11;;;;;;;;;;;;;;;25.69;25.57;100017.91;4434474;32;20428;-70
2022/04/23 13:39:37;;;;;;;;;;;;;;;26.71;24.69;100019.97;4435174;32;20382;-70
2022/04/23 13:42:02;;;;;;;;;;;;;;;27.30;24.06;100006.44;4432996;32;20354;-70